Time;durP1;ratioP1;P1;durP2;ratioP2;P2;SDS_P1;SDS_P2;PMS_P1;PMS_P2;Temp;Humidity;BMP_temperature;BMP_pressure;BME280_temperature;BME280_humidity;BME280_pressure;Samples;Min_cycle;Max_cycle;Signal;HPM_P1;HPM_P2
2022/02/12 00:01:53;;;;;;;;;;;;;;;29.46;47.04;100819.44;5057492;28;70061;-38
2022/02/12 00:04:23;;;;;;;;;;;;;;;29.49;46.54;100827.13;5071655;28;65330;-40
2022/02/12 00:06:54;;;;;;;;;;;;;;;29.55;47.76;100823.56;5080360;28;70831;-38
2022/02/12 00:09:26;;;;;;;;;;;;;;;29.61;49.86;100834.38;5075918;28;65446;-38
2022/02/12 00:11:56;;;;;;;;;;;;;;;29.67;51.23;100842.69;5081751;28;69848;-37
2022/02/12 00:14:26;;;;;;;;;;;;;;;29.71;52.44;100847.47;5076830;28;65644;-38
2022/02/12 00:16:57;;;;;;;;;;;;;;;29.76;52.45;100847.66;5079005;28;71583;-37
2022/02/12 00:19:27;;;;;;;;;;;;;;;29.80;51.95;100854.28;5082656;28;66385;-37
2022/02/12 00:21:58;;;;;;;;;;;;;;;29.84;53.41;100850.13;5082966;28;69496;-38
2022/02/12 00:24:28;;;;;;;;;;;;;;;29.88;53.62;100865.91;5082635;28;65089;-37
2022/02/12 00:27:00;;;;;;;;;;;;;;;29.92;53.29;100861.72;5062386;28;68355;-36
2022/02/12 00:29:29;;;;;;;;;;;;;;;29.93;54.88;100858.00;5073124;28;66393;-38
2022/02/12 00:32:02;;;;;;;;;;;;;;;29.97;54.09;100870.03;5082225;28;69880;-37
2022/02/12 00:34:31;;;;;;;;;;;;;;;29.97;55.39;100870.84;5076566;28;66653;-38
2022/02/12 00:37:03;;;;;;;;;;;;;;;30.01;54.93;100866.69;5081453;28;69959;-38
2022/02/12 00:39:33;;;;;;;;;;;;;;;30.04;54.65;100876.25;5061776;28;65314;-38
2022/02/12 00:42:05;;;;;;;;;;;;;;;30.05;54.99;100877.91;5078034;28;70356;-37
2022/02/12 00:44:34;;;;;;;;;;;;;;;30.09;55.30;100878.28;5081149;28;65997;-38
2022/02/12 00:47:08;;;;;;;;;;;;;;;30.10;55.42;100875.38;5079989;28;69894;-38
2022/02/12 00:49:38;;;;;;;;;;;;;;;30.14;56.34;100882.00;5081204;28;67207;-38
2022/02/12 00:52:08;;;;;;;;;;;;;;;30.17;56.53;100884.31;5076547;28;70008;-40
2022/02/12 00:54:37;;;;;;;;;;;;;;;30.21;56.80;100893.66;5077210;28;65200;-41
2022/02/12 00:57:09;;;;;;;;;;;;;;;30.23;56.94;100899.72;5081774;27;69341;-40
2022/02/12 00:59:39;;;;;;;;;;;;;;;30.21;57.76;100904.47;5067637;27;65978;-40
2022/02/12 01:02:11;;;;;;;;;;;;;;;30.22;57.78;100898.03;5076881;27;69200;-39
2022/02/12 01:04:40;;;;;;;;;;;;;;;30.26;57.84;100899.28;5082025;27;65351;-39
2022/02/12 01:07:12;;;;;;;;;;;;;;;30.31;57.79;100903.19;5094913;27;70387;-41
2022/02/12 01:09:42;;;;;;;;;;;;;;;30.34;58.44;100903.63;5075473;28;65922;-39
2022/02/12 01:12:14;;;;;;;;;;;;;;;30.39;58.55;100905.66;5095908;27;69918;-40
2022/02/12 01:14:44;;;;;;;;;;;;;;;30.44;58.57;100916.66;5081054;27;67079;-40
2022/02/12 01:17:13;;;;;;;;;;;;;;;30.47;58.04;100918.94;5079474;28;69361;-40
2022/02/12 01:19:49;;;;;;;;;;;;;;;30.53;58.16;100926.19;5054329;28;65355;-39
2022/02/12 01:22:19;;;;;;;;;;;;;;;30.56;58.67;100925.75;5076329;28;69033;-38
2022/02/12 01:24:49;;;;;;;;;;;;;;;30.61;58.63;100941.34;5076446;27;66312;-39
2022/02/12 01:27:19;;;;;;;;;;;;;;;30.64;59.10;100939.03;5079530;28;70205;-39
2022/02/12 01:29:49;;;;;;;;;;;;;;;30.67;58.65;100946.75;5079747;28;64969;-39
2022/02/12 01:32:20;;;;;;;;;;;;;;;30.71;58.86;100942.53;5078478;28;69720;-39
2022/02/12 01:34:50;;;;;;;;;;;;;;;30.75;59.18;100936.69;5080320;27;66871;-41
2022/02/12 01:37:24;;;;;;;;;;;;;;;30.78;58.67;100947.09;5077700;28;68990;-39
2022/02/12 01:39:54;;;;;;;;;;;;;;;30.80;59.24;100945.84;5073449;28;66413;-38
2022/02/12 01:42:24;;;;;;;;;;;;;;;30.83;59.09;100950.81;5076003;27;69791;-40
2022/02/12 01:44:54;;;;;;;;;;;;;;;30.86;59.19;100947.69;5079900;28;66408;-39
2022/02/12 01:47:24;;;;;;;;;;;;;;;30.89;59.19;100954.53;5079879;28;70339;-39
2022/02/12 01:49:55;;;;;;;;;;;;;;;30.91;59.10;100957.88;5072476;28;66655;-39
2022/02/12 01:52:28;;;;;;;;;;;;;;;30.93;58.54;100956.59;5074213;27;70530;-38
2022/02/12 01:55:04;;;;;;;;;;;;;;;30.96;58.64;100957.22;5075643;27;66730;-39
2022/02/12 01:57:34;;;;;;;;;;;;;;;30.99;58.71;100957.59;5077471;28;70606;-40
2022/02/12 02:00:06;;;;;;;;;;;;;;;31.00;58.94;100959.25;5074058;28;68124;-39
2022/02/12 02:02:45;;;;;;;;;;;;;;;31.03;58.79;100968.81;5076381;28;69725;-39
2022/02/12 02:05:16;;;;;;;;;;;;;;;31.06;58.59;100973.78;5072837;28;67599;-40
2022/02/12 02:07:46;;;;;;;;;;;;;;;31.08;58.37;100977.13;5073730;28;70193;-39
2022/02/12 02:10:16;;;;;;;;;;;;;;;31.11;58.39;100976.69;5074789;28;66460;-38
2022/02/12 02:12:46;;;;;;;;;;;;;;;31.11;58.29;100979.41;5089467;27;70194;-38
2022/02/12 02:15:16;;;;;;;;;;;;;;;31.13;58.29;100986.25;5092970;27;66563;-40
2022/02/12 02:17:46;;;;;;;;;;;;;;;31.15;57.78;100994.19;5077768;28;70882;-39
2022/02/12 02:20:16;;;;;;;;;;;;;;;31.19;57.97;100997.28;5078361;28;66755;-40
2022/02/12 02:22:48;;;;;;;;;;;;;;;31.21;57.67;100995.19;5079490;28;70237;-40
2022/02/12 02:25:19;;;;;;;;;;;;;;;31.24;57.45;100992.03;5080399;27;66124;-39
2022/02/12 02:27:49;;;;;;;;;;;;;;;31.26;57.31;100982.63;5073881;28;70256;-40
2022/02/12 02:30:20;;;;;;;;;;;;;;;31.28;57.68;100990.53;5074905;28;66638;-41
2022/02/12 02:32:53;;;;;;;;;;;;;;;31.30;57.60;100989.25;5074407;28;43681;-39
2022/02/12 02:35:25;;;;;;;;;;;;;;;31.31;57.66;100988.19;5075267;27;66035;-39
2022/02/12 02:37:55;;;;;;;;;;;;;;;31.34;57.56;100985.06;5071696;27;70377;-39
2022/02/12 02:40:25;;;;;;;;;;;;;;;31.36;57.17;100982.16;5072486;28;65467;-39
2022/02/12 02:42:55;;;;;;;;;;;;;;;31.37;57.07;100989.22;5074751;28;69877;-39
2022/02/12 02:45:25;;;;;;;;;;;;;;;31.38;54.99;100990.91;5078537;27;66689;-35
2022/02/12 02:47:59;;;;;;;;;;;;;;;31.44;54.99;100979.16;5072572;28;70319;-36
2022/02/12 02:56:13;;;;;;;;;;;;;;;31.25;54.93;100969.28;5072722;27;66301;-36
2022/02/12 02:58:52;;;;;;;;;;;;;;;31.19;55.84;100964.75;5068879;28;69917;-35
2022/02/12 03:01:23;;;;;;;;;;;;;;;31.15;55.31;100958.94;5077580;28;65435;-38
2022/02/12 03:03:54;;;;;;;;;;;;;;;31.10;55.54;100959.59;5077133;27;69758;-37
2022/02/12 03:06:25;;;;;;;;;;;;;;;31.10;54.74;100953.38;5076354;27;65470;-35
2022/02/12 03:08:56;;;;;;;;;;;;;;;31.14;53.93;100946.44;5070887;28;69875;-38
2022/02/12 03:11:26;;;;;;;;;;;;;;;31.15;52.60;100954.34;5058237;28;65204;-37
2022/02/12 03:13:56;;;;;;;;;;;;;;;31.19;51.52;100953.91;5069993;27;70134;-38
2022/02/12 03:16:26;;;;;;;;;;;;;;;31.20;51.37;100956.38;5060338;27;65481;-40
2022/02/12 03:18:56;;;;;;;;;;;;;;;31.23;51.37;100949.69;5071455;28;69864;-37
2022/02/12 03:21:26;;;;;;;;;;;;;;;31.25;50.73;100936.75;5047579;28;65255;-37
2022/02/12 03:23:56;;;;;;;;;;;;;;;31.28;50.71;100930.91;5066268;27;70255;-37
2022/02/12 03:26:26;;;;;;;;;;;;;;;31.33;49.39;100928.34;5069824;27;65440;-37
2022/02/12 03:28:56;;;;;;;;;;;;;;;31.36;49.64;100922.50;5066884;27;69056;-37
2022/02/12 03:31:26;;;;;;;;;;;;;;;31.37;49.44;100918.75;5067112;28;66565;-36
2022/02/12 03:33:56;;;;;;;;;;;;;;;31.39;49.50;100919.34;5063101;28;69586;-38
2022/02/12 03:36:26;;;;;;;;;;;;;;;31.38;49.25;100904.97;5069765;28;66160;-36
2022/02/12 03:38:56;;;;;;;;;;;;;;;31.41;49.33;100914.56;5062058;28;70481;-37
2022/02/12 03:41:25;;;;;;;;;;;;;;;31.44;48.68;100905.97;5068257;28;66322;-40
2022/02/12 03:43:55;;;;;;;;;;;;;;;31.47;49.17;100902.81;5071073;28;69179;-39
2022/02/12 03:46:25;;;;;;;;;;;;;;;31.50;48.67;100894.22;5065622;28;66181;-36
2022/02/12 03:48:55;;;;;;;;;;;;;;;31.55;48.75;100894.38;5066382;28;69182;-37
2022/02/12 03:51:25;;;;;;;;;;;;;;;31.58;49.17;100877.66;5067258;28;65821;-37
2022/02/12 03:53:55;;;;;;;;;;;;;;;31.61;48.86;100877.22;5069264;28;69706;-37
2022/02/12 03:56:25;;;;;;;;;;;;;;;31.71;48.39;100870.44;5066548;28;66497;-37
2022/02/12 03:58:55;;;;;;;;;;;;;;;31.75;48.01;100879.78;5069256;28;69270;-38
2022/02/12 04:01:24;;;;;;;;;;;;;;;31.78;47.59;100871.19;5069391;28;65922;-37
2022/02/12 04:03:54;;;;;;;;;;;;;;;31.81;46.94;100870.72;5069566;28;70208;-35
2022/02/12 04:06:24;;;;;;;;;;;;;;;31.87;46.82;100869.00;5069480;28;66072;-35
2022/02/12 04:08:54;;;;;;;;;;;;;;;31.90;45.45;100863.97;5070537;28;69115;-37
2022/02/12 04:11:24;;;;;;;;;;;;;;;31.94;45.77;100857.03;5064748;28;66957;-37
2022/02/12 04:13:54;;;;;;;;;;;;;;;31.98;45.76;100846.56;5066723;27;68994;-37
2022/02/12 04:16:24;;;;;;;;;;;;;;;32.00;45.68;100839.84;5074269;28;65300;-40
2022/02/12 04:18:54;;;;;;;;;;;;;;;32.07;45.26;100833.50;5075551;28;70138;-37
2022/02/12 04:21:25;;;;;;;;;;;;;;;32.11;45.27;100848.28;5064060;27;65951;-37
2022/02/12 04:23:55;;;;;;;;;;;;;;;32.13;45.64;100829.88;5077048;28;70286;-39
2022/02/12 04:26:26;;;;;;;;;;;;;;;32.17;45.30;100820.22;5064674;28;66817;-37
2022/02/12 04:28:56;;;;;;;;;;;;;;;32.14;45.36;100826.09;5067904;28;69461;-36
2022/02/12 04:31:27;;;;;;;;;;;;;;;32.17;45.44;100822.91;5074738;27;66035;-36
2022/02/12 04:33:57;;;;;;;;;;;;;;;32.17;44.78;100814.78;5073787;27;69243;-37
2022/02/12 04:36:29;;;;;;;;;;;;;;;32.19;45.28;100823.53;5069863;28;65808;-38
2022/02/12 04:38:59;;;;;;;;;;;;;;;32.21;44.68;100816.81;5094261;27;69124;-38
2022/02/12 04:41:31;;;;;;;;;;;;;;;32.23;44.40;100803.00;5064735;28;67097;-36
2022/02/12 04:44:04;;;;;;;;;;;;;;;32.26;45.13;100802.53;5075607;27;70043;-36
2022/02/12 04:46:34;;;;;;;;;;;;;;;32.25;44.22;100800.88;5080627;27;66115;-36
2022/02/12 04:49:04;;;;;;;;;;;;;;;32.27;45.21;100796.06;5066467;28;70252;-36
2022/02/12 04:51:34;;;;;;;;;;;;;;;32.27;45.14;100788.75;5074502;27;66395;-37
2022/02/12 04:54:03;;;;;;;;;;;;;;;32.27;45.19;100779.78;5071715;27;69958;-36
2022/02/12 04:56:34;;;;;;;;;;;;;;;32.24;44.94;100778.34;5074767;28;65949;-37
2022/02/12 04:59:04;;;;;;;;;;;;;;;32.26;45.35;100775.38;5076838;28;70296;-38
2022/02/12 05:01:36;;;;;;;;;;;;;;;32.26;45.09;100773.53;5078466;28;67024;-38
2022/02/12 05:04:06;;;;;;;;;;;;;;;32.24;44.73;100762.06;5068748;28;70403;-37
2022/02/12 05:06:37;;;;;;;;;;;;;;;32.25;45.07;100758.28;5078126;28;66943;-37
2022/02/12 05:09:07;;;;;;;;;;;;;;;32.26;45.25;100753.66;5061301;28;69410;-39
2022/02/12 05:11:41;;;;;;;;;;;;;;;32.27;45.07;100747.22;5074680;27;65691;-37
2022/02/12 05:14:10;;;;;;;;;;;;;;;32.28;45.49;100746.13;5077086;28;69685;-38
2022/02/12 05:16:41;;;;;;;;;;;;;;;32.30;45.15;100737.78;5081189;28;66066;-37
2022/02/12 05:19:11;;;;;;;;;;;;;;;32.33;45.66;100732.69;5075101;28;69929;-38
2022/02/12 05:21:41;;;;;;;;;;;;;;;32.34;45.68;100722.66;5077812;28;67200;-37
2022/02/12 05:24:11;;;;;;;;;;;;;;;32.36;45.36;100720.53;5056471;28;69070;-37
2022/02/12 05:26:41;;;;;;;;;;;;;;;32.40;45.74;100714.41;5074908;28;66925;-38
2022/02/12 05:29:11;;;;;;;;;;;;;;;32.43;45.67;100711.22;5077108;28;70615;-37
2022/02/12 05:31:43;;;;;;;;;;;;;;;32.42;46.17;100701.41;5061756;28;66630;-38
2022/02/12 05:34:19;;;;;;;;;;;;;;;32.45;45.76;100698.22;5077519;28;71100;-37
2022/02/12 05:36:49;;;;;;;;;;;;;;;32.52;46.15;100690.00;5079843;27;66617;-38
2022/02/12 05:39:19;;;;;;;;;;;;;;;32.55;46.24;100686.00;5069807;27;69807;-38
2022/02/12 05:41:49;;;;;;;;;;;;;;;32.57;46.17;100679.28;5053592;28;66661;-36
2022/02/12 05:44:19;;;;;;;;;;;;;;;32.60;46.51;100680.69;5058277;28;69851;-39
2022/02/12 05:46:49;;;;;;;;;;;;;;;32.60;46.62;100678.78;5070274;27;67738;-36
2022/02/12 05:49:19;;;;;;;;;;;;;;;32.58;46.38;100674.66;5066722;28;70169;-39
2022/02/12 05:51:48;;;;;;;;;;;;;;;32.55;47.01;100673.25;5069597;27;66637;-37
2022/02/12 05:54:19;;;;;;;;;;;;;;;32.52;46.80;100662.03;5068000;28;70336;-38
2022/02/12 05:56:49;;;;;;;;;;;;;;;32.52;46.67;100664.75;5067948;28;66615;-39
2022/02/12 05:59:19;;;;;;;;;;;;;;;32.51;47.22;100671.22;5066098;28;69752;-39
2022/02/12 06:01:50;;;;;;;;;;;;;;;32.51;46.95;100663.09;5070278;28;64949;-40
2022/02/12 06:04:20;;;;;;;;;;;;;;;32.47;47.18;100655.41;5069211;28;69805;-38
2022/02/12 06:06:51;;;;;;;;;;;;;;;32.48;47.17;100648.09;5072938;27;66001;-37
2022/02/12 06:09:21;;;;;;;;;;;;;;;32.49;47.14;100650.59;5076957;28;70551;-37
2022/02/12 06:11:53;;;;;;;;;;;;;;;32.46;47.36;100645.63;5078686;27;66467;-38
2022/02/12 06:14:23;;;;;;;;;;;;;;;32.49;47.05;100639.72;5073892;27;69221;-37
2022/02/12 06:16:57;;;;;;;;;;;;;;;32.46;47.45;100634.78;5063468;27;65919;-36
2022/02/12 06:19:27;;;;;;;;;;;;;;;32.46;47.00;100632.06;5070412;28;69067;-36
2022/02/12 06:22:03;;;;;;;;;;;;;;;32.48;47.17;100637.22;5070108;28;66617;-38
2022/02/12 06:24:33;;;;;;;;;;;;;;;32.44;47.39;100620.56;5076512;28;70311;-37
2022/02/12 06:27:06;;;;;;;;;;;;;;;32.47;47.49;100620.13;5072073;27;66025;-37
2022/02/12 06:29:38;;;;;;;;;;;;;;;32.45;47.24;100600.47;5076109;28;70316;-38
2022/02/12 06:32:09;;;;;;;;;;;;;;;32.48;47.35;100601.94;5076024;28;66238;-38
2022/02/12 06:34:39;;;;;;;;;;;;;;;32.51;47.53;100603.34;5075472;28;70531;-41
2022/02/12 06:37:09;;;;;;;;;;;;;;;32.52;47.82;100600.41;5066312;28;64866;-36
2022/02/12 06:39:40;;;;;;;;;;;;;;;32.52;47.61;100589.56;5073922;28;69324;-37
2022/02/12 06:42:09;;;;;;;;;;;;;;;32.55;47.64;100588.25;5079645;27;65878;-37
2022/02/12 06:44:40;;;;;;;;;;;;;;;32.53;47.46;100574.06;5067363;28;69284;-36
2022/02/12 06:47:10;;;;;;;;;;;;;;;32.59;47.49;100567.69;5076874;27;65521;-38
2022/02/12 06:49:40;;;;;;;;;;;;;;;32.58;47.54;100560.63;5079533;28;70132;-38
2022/02/12 06:52:11;;;;;;;;;;;;;;;32.62;47.46;100561.78;5078126;27;66555;-37
2022/02/12 06:54:41;;;;;;;;;;;;;;;32.63;47.61;100558.00;5090292;27;70499;-39
2022/02/12 06:57:11;;;;;;;;;;;;;;;32.64;47.44;100548.78;5078977;28;66122;-38
2022/02/12 06:59:43;;;;;;;;;;;;;;;32.68;47.59;100549.94;5074419;27;68505;-38
2022/02/12 07:02:13;;;;;;;;;;;;;;;32.69;47.15;100535.31;5077973;28;66090;-38
2022/02/12 07:04:44;;;;;;;;;;;;;;;32.71;47.43;100527.75;5093191;27;68624;-39
2022/02/12 07:07:14;;;;;;;;;;;;;;;32.72;47.43;100515.81;5073164;28;66940;-38
2022/02/12 07:09:44;;;;;;;;;;;;;;;32.75;47.62;100523.47;5064875;28;69819;-38
2022/02/12 07:12:14;;;;;;;;;;;;;;;32.79;47.59;100521.94;5054989;28;64725;-39
2022/02/12 07:14:44;;;;;;;;;;;;;;;32.81;47.10;100522.50;5072178;28;69350;-39
2022/02/12 07:17:16;;;;;;;;;;;;;;;32.83;47.44;100519.56;5066931;28;64515;-37
2022/02/12 07:19:46;;;;;;;;;;;;;;;32.85;47.37;100509.28;5074994;28;69336;-39
2022/02/12 07:22:21;;;;;;;;;;;;;;;32.86;47.44;100506.31;5089474;27;66151;-37
2022/02/12 07:24:52;;;;;;;;;;;;;;;32.87;47.67;100507.94;5068255;28;70430;-39
2022/02/12 07:27:22;;;;;;;;;;;;;;;32.90;48.38;100499.34;5061396;28;66493;-38
2022/02/12 07:29:53;;;;;;;;;;;;;;;32.92;48.25;100501.78;5077213;28;70459;-38
2022/02/12 07:32:23;;;;;;;;;;;;;;;32.91;48.97;100500.97;5077904;27;65168;-39
2022/02/12 07:34:54;;;;;;;;;;;;;;;32.93;48.52;100495.28;5063664;28;70035;-37
2022/02/12 07:37:24;;;;;;;;;;;;;;;32.93;48.84;100493.41;5076912;28;66667;-38
2022/02/12 07:39:54;;;;;;;;;;;;;;;32.96;48.80;100491.25;5078308;28;69852;-37
2022/02/12 07:42:24;;;;;;;;;;;;;;;32.95;48.73;100487.72;5072098;28;67002;-38
2022/02/12 07:44:53;;;;;;;;;;;;;;;32.97;48.78;100482.06;5071019;28;69871;-38
2022/02/12 07:47:24;;;;;;;;;;;;;;;32.98;48.90;100475.53;5078660;28;66459;-38
2022/02/12 07:49:53;;;;;;;;;;;;;;;33.01;48.63;100472.38;5071174;28;69879;-38
2022/02/12 07:52:23;;;;;;;;;;;;;;;33.01;48.89;100472.38;5074792;27;65618;-38
2022/02/12 07:54:53;;;;;;;;;;;;;;;33.03;48.82;100475.66;5071617;28;69940;-39
2022/02/12 07:57:23;;;;;;;;;;;;;;;33.05;49.20;100468.09;5069284;28;66809;-39
2022/02/12 07:59:53;;;;;;;;;;;;;;;33.06;48.90;100464.31;5078505;27;69806;-38
2022/02/12 08:02:23;;;;;;;;;;;;;;;33.08;48.82;100462.19;5074955;28;66127;-37
2022/02/12 08:04:53;;;;;;;;;;;;;;;33.10;48.83;100454.63;5066327;27;68813;-37
2022/02/12 08:07:29;;;;;;;;;;;;;;;33.13;48.88;100459.56;5072722;27;66777;-38
2022/02/12 08:10:00;;;;;;;;;;;;;;;33.17;48.87;100449.81;5072796;27;70383;-40
2022/02/12 08:12:30;;;;;;;;;;;;;;;33.18;48.88;100451.47;5069742;28;66994;-38
2022/02/12 08:15:00;;;;;;;;;;;;;;;33.21;49.05;100442.84;5069442;27;69912;-39
2022/02/12 08:17:30;;;;;;;;;;;;;;;33.24;48.94;100450.50;5077503;28;66103;-38
2022/02/12 08:20:01;;;;;;;;;;;;;;;33.26;49.05;100436.66;5073609;28;70373;-38
2022/02/12 08:22:31;;;;;;;;;;;;;;;33.29;49.47;100428.00;5069554;28;66880;-39
2022/02/12 08:25:01;;;;;;;;;;;;;;;33.30;49.44;100438.63;5093098;27;70332;-38
2022/02/12 08:27:31;;;;;;;;;;;;;;;33.31;49.58;100440.28;5090226;27;66191;-37
2022/02/12 08:30:03;;;;;;;;;;;;;;;33.33;49.67;100434.59;5075139;28;69603;-39
2022/02/12 08:32:33;;;;;;;;;;;;;;;33.35;50.20;100427.84;5078063;28;66529;-39
2022/02/12 08:35:03;;;;;;;;;;;;;;;33.38;50.65;100432.78;5072327;28;70363;-39
2022/02/12 08:37:35;;;;;;;;;;;;;;;33.42;50.71;100426.84;5072541;28;65728;-38
2022/02/12 08:40:05;;;;;;;;;;;;;;;33.40;51.08;100424.34;5067232;28;69729;-38
2022/02/12 08:42:35;;;;;;;;;;;;;;;33.43;50.51;100423.03;5057271;28;65962;-39
2022/02/12 08:45:06;;;;;;;;;;;;;;;33.43;50.71;100425.75;5081703;28;70503;-39
2022/02/12 08:47:36;;;;;;;;;;;;;;;33.45;50.54;100420.91;5073877;28;66964;-39
2022/02/12 08:50:08;;;;;;;;;;;;;;;33.44;50.58;100422.00;5068610;28;69778;-38
2022/02/12 08:52:40;;;;;;;;;;;;;;;33.44;50.87;100422.00;5074668;28;65585;-40
2022/02/12 08:55:12;;;;;;;;;;;;;;;33.45;50.75;100421.72;5074540;28;70021;-39
2022/02/12 08:57:42;;;;;;;;;;;;;;;33.46;50.79;100419.81;5079659;28;65557;-38
2022/02/12 09:00:13;;;;;;;;;;;;;;;33.48;50.03;100423.13;5080206;28;69105;-38
2022/02/12 09:03:03;;;;;;;;;;;;;;;33.52;50.01;100413.41;5095024;27;65883;-39
2022/02/12 09:05:33;;;;;;;;;;;;;;;33.56;49.78;100428.19;5058121;28;70129;-38
2022/02/12 09:08:03;;;;;;;;;;;;;;;33.58;50.02;100435.00;5091616;27;66644;-37
2022/02/12 09:10:33;;;;;;;;;;;;;;;33.61;50.24;100432.88;5077230;28;70630;-38
2022/02/12 09:13:03;;;;;;;;;;;;;;;33.62;50.10;100440.78;5081206;28;65264;-37
2022/02/12 09:15:33;;;;;;;;;;;;;;;33.60;50.46;100437.50;5081518;28;68105;-38
2022/02/12 09:18:03;;;;;;;;;;;;;;;33.60;50.36;100440.22;5081317;28;65219;-38
2022/02/12 09:20:33;;;;;;;;;;;;;;;33.62;50.35;100440.78;5094876;27;70150;-38
2022/02/12 09:23:02;;;;;;;;;;;;;;;33.61;50.31;100444.56;5078114;27;66319;-37
2022/02/12 09:25:33;;;;;;;;;;;;;;;33.63;50.82;100447.03;5077491;28;69312;-38
2022/02/12 09:28:03;;;;;;;;;;;;;;;33.61;50.63;100450.00;5060242;28;66418;-37
2022/02/12 09:30:34;;;;;;;;;;;;;;;33.63;50.42;100458.75;5075818;27;69111;-38
2022/02/12 09:33:03;;;;;;;;;;;;;;;33.64;50.93;100454.94;5082374;28;66820;-36
2022/02/12 09:35:53;;;;;;;;;;;;;;;33.65;50.87;100461.22;5077193;28;70511;-37
2022/02/12 09:38:28;;;;;;;;;;;;;;;33.67;50.67;100464.50;5064437;28;65193;-39
2022/02/12 09:40:59;;;;;;;;;;;;;;;33.65;50.82;100462.03;5081004;27;69375;-38
2022/02/12 09:43:29;;;;;;;;;;;;;;;33.65;50.35;100466.66;5079786;28;65600;-37
2022/02/12 09:46:05;;;;;;;;;;;;;;;33.66;50.68;100480.00;5071085;28;69889;-38
2022/02/12 09:48:35;;;;;;;;;;;;;;;33.63;50.65;100480.50;5073376;28;65650;-38
2022/02/12 09:51:05;;;;;;;;;;;;;;;33.65;50.43;100478.34;5077288;28;69897;-37
2022/02/12 09:53:35;;;;;;;;;;;;;;;33.64;50.63;100474.00;5078506;28;65771;-37
2022/02/12 09:56:06;;;;;;;;;;;;;;;33.65;50.77;100482.97;5077827;28;70675;-37
2022/02/12 09:58:36;;;;;;;;;;;;;;;33.64;50.89;100479.44;5081137;28;66013;-36
2022/02/12 10:01:07;;;;;;;;;;;;;;;33.63;51.10;100485.94;5081012;27;69833;-38
2022/02/12 10:03:41;;;;;;;;;;;;;;;33.62;50.88;100487.00;5078571;28;67718;-39
2022/02/12 10:06:12;;;;;;;;;;;;;;;33.61;51.27;100482.66;5077634;28;69856;-38
2022/02/12 10:09:01;;;;;;;;;;;;;;;33.62;51.54;100489.72;5077475;28;65357;-39
2022/02/12 10:11:48;;;;;;;;;;;;;;;33.62;51.43;100489.72;5086533;27;69535;-39
2022/02/12 10:14:20;;;;;;;;;;;;;;;33.61;51.67;100498.16;5056452;28;66250;-38
2022/02/12 10:17:00;;;;;;;;;;;;;;;33.59;51.80;100495.66;5080024;27;69844;-40
2022/02/12 10:19:31;;;;;;;;;;;;;;;33.59;51.82;100499.19;5061401;28;66117;-38
2022/02/12 10:22:15;;;;;;;;;;;;;;;33.59;51.63;100495.66;5077833;28;69743;-38
2022/02/12 10:25:00;;;;;;;;;;;;;;;33.60;51.76;100502.78;5070475;28;66467;-38
2022/02/12 10:27:31;;;;;;;;;;;;;;;33.60;51.72;100505.50;5092227;27;70325;-38
2022/02/12 10:30:04;;;;;;;;;;;;;;;33.58;51.79;100510.34;5076202;28;66702;-38
2022/02/12 10:32:36;;;;;;;;;;;;;;;33.57;52.09;100508.69;5052447;28;69299;-37
2022/02/12 10:35:10;;;;;;;;;;;;;;;33.58;52.09;100515.78;5057861;28;66235;-38
2022/02/12 10:37:45;;;;;;;;;;;;;;;33.53;52.15;100518.41;5060396;28;69872;-37
2022/02/12 10:40:15;;;;;;;;;;;;;;;33.52;52.35;100511.31;5024156;28;67088;-39
2022/02/12 10:42:46;;;;;;;;;;;;;;;33.53;52.48;100518.41;5074304;28;69978;-38
2022/02/12 10:45:18;;;;;;;;;;;;;;;33.50;52.21;100521.59;5039919;28;66899;-39
2022/02/12 10:47:49;;;;;;;;;;;;;;;33.48;52.26;100523.72;5066709;28;70812;-38
2022/02/12 10:50:23;;;;;;;;;;;;;;;33.47;52.10;100522.09;5074584;27;66750;-37
2022/02/12 10:52:58;;;;;;;;;;;;;;;33.46;52.21;100528.59;5071243;28;69519;-37
2022/02/12 10:55:34;;;;;;;;;;;;;;;33.44;51.98;100525.31;5071375;28;66163;-37
2022/02/12 10:58:06;;;;;;;;;;;;;;;33.43;52.33;100534.53;5086909;27;69831;-36
2022/02/12 11:00:36;;;;;;;;;;;;;;;33.40;52.49;100535.00;5077193;27;66794;-37
2022/02/12 11:03:12;;;;;;;;;;;;;;;33.40;52.53;100535.00;5092160;27;71263;-37
2022/02/12 11:05:48;;;;;;;;;;;;;;;33.38;52.54;100546.16;5077471;28;66146;-36
2022/02/12 11:08:21;;;;;;;;;;;;;;;33.36;52.54;100546.38;5079268;27;70272;-36
2022/02/12 11:10:51;;;;;;;;;;;;;;;33.33;52.63;100552.31;5078096;28;66720;-37
2022/02/12 11:13:22;;;;;;;;;;;;;;;33.17;52.33;100525.94;5073738;27;69639;-37
2022/02/12 11:15:51;;;;;;;;;;;;;;;33.32;52.82;100564.28;5073518;28;66155;-39
2022/02/12 11:18:23;;;;;;;;;;;;;;;33.33;52.64;100559.66;5078893;28;70726;-38
2022/02/12 11:20:54;;;;;;;;;;;;;;;33.30;52.82;100563.69;5078324;27;65755;-37
2022/02/12 11:23:25;;;;;;;;;;;;;;;33.28;52.88;100571.25;5094759;27;69789;-38
2022/02/12 11:26:15;;;;;;;;;;;;;;;33.27;52.68;100575.03;5076343;28;66457;-38
2022/02/12 11:28:45;;;;;;;;;;;;;;;33.26;52.73;100573.38;5073263;28;70116;-38
2022/02/12 11:31:15;;;;;;;;;;;;;;;33.23;53.09;100573.88;5067608;28;66535;-37
2022/02/12 11:34:17;;;;;;;;;;;;;;;33.22;52.62;100583.09;5077442;28;70426;-37
2022/02/12 11:36:47;;;;;;;;;;;;;;;33.18;53.00;100581.91;5069360;28;66011;-38
2022/02/12 11:39:26;;;;;;;;;;;;;;;33.24;52.91;100591.00;5088194;27;69854;-37
2022/02/12 11:42:02;;;;;;;;;;;;;;;33.22;52.92;100593.97;5071070;27;65506;-38
2022/02/12 11:44:43;;;;;;;;;;;;;;;33.21;52.73;100589.63;5073452;28;70501;-37
2022/02/12 11:47:13;;;;;;;;;;;;;;;33.17;52.97;100588.44;5076881;27;65110;-37
2022/02/12 11:49:44;;;;;;;;;;;;;;;33.13;52.82;100595.44;5078116;28;70007;-35
2022/02/12 11:52:17;;;;;;;;;;;;;;;33.10;53.15;100591.31;5075433;28;66526;-37
2022/02/12 11:54:51;;;;;;;;;;;;;;;33.07;53.09;100590.94;5053410;28;70272;-37
2022/02/12 11:57:27;;;;;;;;;;;;;;;33.06;53.04;100589.31;5073995;27;66355;-38
2022/02/12 12:00:06;;;;;;;;;;;;;;;33.02;53.10;100588.97;5073502;28;70281;-38
2022/02/12 12:02:42;;;;;;;;;;;;;;;32.99;53.36;100594.03;5079345;28;66606;-37
2022/02/12 12:05:13;;;;;;;;;;;;;;;32.97;53.43;100602.44;5069794;28;69194;-36
2022/02/12 12:08:01;;;;;;;;;;;;;;;32.94;53.21;100609.16;5070319;28;65680;-38
2022/02/12 12:10:34;;;;;;;;;;;;;;;32.93;52.93;100610.25;5072272;28;70501;-40
2022/02/12 12:13:12;;;;;;;;;;;;;;;32.92;53.57;100614.00;5040756;28;66516;-37
2022/02/12 12:15:56;;;;;;;;;;;;;;;32.90;53.21;100613.44;5070885;28;70268;-37
2022/02/12 12:18:27;;;;;;;;;;;;;;;32.88;53.48;100622.91;5053709;28;66553;-39
2022/02/12 12:20:57;;;;;;;;;;;;;;;32.88;53.46;100625.63;5068399;28;69267;-37
2022/02/12 12:23:27;;;;;;;;;;;;;;;32.85;53.06;100621.47;5081968;27;65558;-37
2022/02/12 12:25:58;;;;;;;;;;;;;;;32.80;53.09;100618.66;5080586;27;69246;-36
2022/02/12 12:28:30;;;;;;;;;;;;;;;32.79;53.12;100619.75;5081415;27;66546;-38
2022/02/12 12:31:03;;;;;;;;;;;;;;;32.76;52.95;100616.66;5080905;28;70059;-39
2022/02/12 12:33:37;;;;;;;;;;;;;;;32.73;52.99;100623.38;5077997;28;67060;-38
2022/02/12 12:36:07;;;;;;;;;;;;;;;32.68;52.82;100625.97;5075411;28;70269;-38
2022/02/12 12:38:41;;;;;;;;;;;;;;;32.65;52.60;100626.47;5075185;28;66740;-36
2022/02/12 12:41:29;;;;;;;;;;;;;;;32.61;52.60;100630.75;5078988;27;70562;-36
2022/02/12 12:44:08;;;;;;;;;;;;;;;32.56;52.59;100636.88;5073912;27;66682;-37
2022/02/12 12:46:39;;;;;;;;;;;;;;;32.52;52.31;100641.13;5079285;28;70526;-37
2022/02/12 12:49:09;;;;;;;;;;;;;;;32.49;52.04;100645.16;5073892;28;65284;-36
2022/02/12 12:51:49;;;;;;;;;;;;;;;32.45;52.10;100646.66;5074431;27;68954;-37
2022/02/12 12:54:26;;;;;;;;;;;;;;;32.42;51.92;100649.00;5077303;28;66138;-37
2022/02/12 12:56:57;;;;;;;;;;;;;;;32.38;52.17;100659.53;5052801;28;69851;-38
2022/02/12 12:59:28;;;;;;;;;;;;;;;32.34;52.22;100655.63;5074181;28;65707;-38
2022/02/12 13:02:02;;;;;;;;;;;;;;;32.34;52.11;100657.50;5073288;28;69520;-37
2022/02/12 13:04:40;;;;;;;;;;;;;;;32.30;52.20;100667.19;5082466;27;65605;-38